sensor_id;sensor_type;location;lat;lon;timestamp;temperature;humidity
71206;SHT31;58935;54.498;18.544;2023-01-10T00:00:45;6.54;84.99
71206;SHT31;58935;54.498;18.544;2023-01-10T00:03:10;6.54;84.94
71206;SHT31;58935;54.498;18.544;2023-01-10T00:05:37;6.55;84.88
71206;SHT31;58935;54.498;18.544;2023-01-10T00:08:05;6.56;84.76
71206;SHT31;58935;54.498;18.544;2023-01-10T00:10:33;6.60;84.65
71206;SHT31;58935;54.498;18.544;2023-01-10T00:13:00;6.64;84.52
71206;SHT31;58935;54.498;18.544;2023-01-10T00:15:30;6.68;84.37
71206;SHT31;58935;54.498;18.544;2023-01-10T00:17:57;6.72;84.25
71206;SHT31;58935;54.498;18.544;2023-01-10T00:20:23;6.74;84.11
71206;SHT31;58935;54.498;18.544;2023-01-10T00:22:49;6.78;84.01
71206;SHT31;58935;54.498;18.544;2023-01-10T00:25:15;6.80;83.89
71206;SHT31;58935;54.498;18.544;2023-01-10T00:27:44;6.83;83.80
71206;SHT31;58935;54.498;18.544;2023-01-10T00:30:16;6.86;83.57
71206;SHT31;58935;54.498;18.544;2023-01-10T00:32:44;6.85;83.40
71206;SHT31;58935;54.498;18.544;2023-01-10T00:35:11;6.86;83.38
71206;SHT31;58935;54.498;18.544;2023-01-10T00:37:38;6.84;83.19
71206;SHT31;58935;54.498;18.544;2023-01-10T00:40:05;6.85;82.99
71206;SHT31;58935;54.498;18.544;2023-01-10T00:42:34;6.83;82.68
71206;SHT31;58935;54.498;18.544;2023-01-10T00:45:04;6.80;82.46
71206;SHT31;58935;54.498;18.544;2023-01-10T00:47:30;6.79;82.13
71206;SHT31;58935;54.498;18.544;2023-01-10T00:49:55;6.80;81.91
71206;SHT31;58935;54.498;18.544;2023-01-10T00:52:21;6.79;81.70
71206;SHT31;58935;54.498;18.544;2023-01-10T00:54:46;6.78;81.40
71206;SHT31;58935;54.498;18.544;2023-01-10T00:57:12;6.75;81.36
71206;SHT31;58935;54.498;18.544;2023-01-10T00:59:37;6.73;81.42
71206;SHT31;58935;54.498;18.544;2023-01-10T01:02:03;6.72;81.52
71206;SHT31;58935;54.498;18.544;2023-01-10T01:04:33;6.71;81.51
71206;SHT31;58935;54.498;18.544;2023-01-10T01:07:00;6.70;81.52
71206;SHT31;58935;54.498;18.544;2023-01-10T01:09:29;6.69;81.43
71206;SHT31;58935;54.498;18.544;2023-01-10T01:11:57;6.68;81.33
71206;SHT31;58935;54.498;18.544;2023-01-10T01:14:23;6.70;81.19
71206;SHT31;58935;54.498;18.544;2023-01-10T01:16:51;6.70;81.02
71206;SHT31;58935;54.498;18.544;2023-01-10T01:19:16;6.69;81.01
71206;SHT31;58935;54.498;18.544;2023-01-10T01:21:42;6.68;80.99
71206;SHT31;58935;54.498;18.544;2023-01-10T01:24:10;6.67;80.87
71206;SHT31;58935;54.498;18.544;2023-01-10T01:26:35;6.66;81.00
71206;SHT31;58935;54.498;18.544;2023-01-10T01:29:01;6.65;81.05
71206;SHT31;58935;54.498;18.544;2023-01-10T01:31:28;6.63;81.12
71206;SHT31;58935;54.498;18.544;2023-01-10T01:33:54;6.62;81.21
71206;SHT31;58935;54.498;18.544;2023-01-10T01:36:19;6.62;81.24
71206;SHT31;58935;54.498;18.544;2023-01-10T01:38:47;6.64;81.30
71206;SHT31;58935;54.498;18.544;2023-01-10T01:41:13;6.65;81.24
71206;SHT31;58935;54.498;18.544;2023-01-10T01:46:15;6.68;81.21
71206;SHT31;58935;54.498;18.544;2023-01-10T01:48:41;6.67;81.13
71206;SHT31;58935;54.498;18.544;2023-01-10T01:51:09;6.66;81.20
71206;SHT31;58935;54.498;18.544;2023-01-10T01:53:48;6.64;81.28
71206;SHT31;58935;54.498;18.544;2023-01-10T01:56:20;6.66;81.38
71206;SHT31;58935;54.498;18.544;2023-01-10T01:58:56;6.67;81.40
71206;SHT31;58935;54.498;18.544;2023-01-10T02:01:35;6.68;81.40
71206;SHT31;58935;54.498;18.544;2023-01-10T02:04:09;6.66;81.50
71206;SHT31;58935;54.498;18.544;2023-01-10T02:06:43;6.64;81.62
71206;SHT31;58935;54.498;18.544;2023-01-10T02:09:16;6.63;81.70
71206;SHT31;58935;54.498;18.544;2023-01-10T02:11:53;6.60;81.77
71206;SHT31;58935;54.498;18.544;2023-01-10T02:14:20;6.58;81.89
71206;SHT31;58935;54.498;18.544;2023-01-10T02:16:49;6.55;81.99
71206;SHT31;58935;54.498;18.544;2023-01-10T02:20:19;6.53;82.09
71206;SHT31;58935;54.498;18.544;2023-01-10T02:22:13;6.53;82.11
71206;SHT31;58935;54.498;18.544;2023-01-10T02:28:33;6.51;82.21
71206;SHT31;58935;54.498;18.544;2023-01-10T02:31:11;6.51;82.33
71206;SHT31;58935;54.498;18.544;2023-01-10T02:33:56;6.49;82.41
71206;SHT31;58935;54.498;18.544;2023-01-10T02:36:38;6.50;82.41
71206;SHT31;58935;54.498;18.544;2023-01-10T02:39:22;6.51;82.41
71206;SHT31;58935;54.498;18.544;2023-01-10T02:42:06;6.49;82.42
71206;SHT31;58935;54.498;18.544;2023-01-10T02:47:12;6.47;82.50
71206;SHT31;58935;54.498;18.544;2023-01-10T02:49:41;6.48;82.51
71206;SHT31;58935;54.498;18.544;2023-01-10T02:52:11;6.50;82.49
71206;SHT31;58935;54.498;18.544;2023-01-10T02:54:47;6.50;82.48
71206;SHT31;58935;54.498;18.544;2023-01-10T02:57:24;6.50;82.57
71206;SHT31;58935;54.498;18.544;2023-01-10T03:00:04;6.53;82.61
71206;SHT31;58935;54.498;18.544;2023-01-10T03:02:59;6.54;82.55
71206;SHT31;58935;54.498;18.544;2023-01-10T03:05:48;6.58;82.50
71206;SHT31;58935;54.498;18.544;2023-01-10T03:08:30;6.60;82.41
71206;SHT31;58935;54.498;18.544;2023-01-10T03:11:08;6.58;82.33
71206;SHT31;58935;54.498;18.544;2023-01-10T03:13:38;6.55;82.40
71206;SHT31;58935;54.498;18.544;2023-01-10T03:16:23;6.52;82.45
71206;SHT31;58935;54.498;18.544;2023-01-10T03:18:58;6.48;82.49
71206;SHT31;58935;54.498;18.544;2023-01-10T03:21:31;6.47;82.59
71206;SHT31;58935;54.498;18.544;2023-01-10T03:24:04;6.47;82.68
71206;SHT31;58935;54.498;18.544;2023-01-10T03:29:17;6.41;82.82
71206;SHT31;58935;54.498;18.544;2023-01-10T03:31:51;6.37;82.90
71206;SHT31;58935;54.498;18.544;2023-01-10T03:34:24;6.31;83.03
71206;SHT31;58935;54.498;18.544;2023-01-10T03:39:31;6.20;83.40
71206;SHT31;58935;54.498;18.544;2023-01-10T03:45:23;6.12;83.76
71206;SHT31;58935;54.498;18.544;2023-01-10T03:48:00;6.08;83.85
71206;SHT31;58935;54.498;18.544;2023-01-10T03:50:29;6.04;84.04
71206;SHT31;58935;54.498;18.544;2023-01-10T03:53:01;6.00;84.14
71206;SHT31;58935;54.498;18.544;2023-01-10T03:55:32;5.97;84.23
71206;SHT31;58935;54.498;18.544;2023-01-10T03:57:59;5.96;84.42
71206;SHT31;58935;54.498;18.544;2023-01-10T04:00:24;5.97;84.48
71206;SHT31;58935;54.498;18.544;2023-01-10T04:02:50;5.99;84.49
71206;SHT31;58935;54.498;18.544;2023-01-10T04:05:18;6.02;84.47
71206;SHT31;58935;54.498;18.544;2023-01-10T04:07:46;6.05;84.45
71206;SHT31;58935;54.498;18.544;2023-01-10T04:10:13;6.07;84.32
71206;SHT31;58935;54.498;18.544;2023-01-10T04:12:39;6.09;84.30
71206;SHT31;58935;54.498;18.544;2023-01-10T04:15:04;6.08;84.24
71206;SHT31;58935;54.498;18.544;2023-01-10T04:17:31;6.07;84.09
71206;SHT31;58935;54.498;18.544;2023-01-10T04:19:56;6.05;84.04
71206;SHT31;58935;54.498;18.544;2023-01-10T04:22:21;6.04;83.98
71206;SHT31;58935;54.498;18.544;2023-01-10T04:24:47;6.02;83.90
71206;SHT31;58935;54.498;18.544;2023-01-10T04:27:15;5.98;83.80
71206;SHT31;58935;54.498;18.544;2023-01-10T04:29:40;5.97;83.93
71206;SHT31;58935;54.498;18.544;2023-01-10T04:32:06;5.99;83.93
71206;SHT31;58935;54.498;18.544;2023-01-10T04:34:31;5.99;83.87
71206;SHT31;58935;54.498;18.544;2023-01-10T04:36:57;6.02;83.87
71206;SHT31;58935;54.498;18.544;2023-01-10T04:39:22;6.05;83.90
71206;SHT31;58935;54.498;18.544;2023-01-10T04:41:48;6.09;83.83
71206;SHT31;58935;54.498;18.544;2023-01-10T04:44:14;6.14;83.88
71206;SHT31;58935;54.498;18.544;2023-01-10T04:46:43;6.18;83.74
71206;SHT31;58935;54.498;18.544;2023-01-10T04:49:09;6.22;83.63
71206;SHT31;58935;54.498;18.544;2023-01-10T04:51:40;6.24;83.59
71206;SHT31;58935;54.498;18.544;2023-01-10T04:54:05;6.25;83.54
71206;SHT31;58935;54.498;18.544;2023-01-10T04:56:33;6.26;83.53
71206;SHT31;58935;54.498;18.544;2023-01-10T04:58:59;6.27;83.42
71206;SHT31;58935;54.498;18.544;2023-01-10T05:01:25;6.26;83.37
71206;SHT31;58935;54.498;18.544;2023-01-10T05:03:53;6.23;83.38
71206;SHT31;58935;54.498;18.544;2023-01-10T05:06:20;6.21;83.41
71206;SHT31;58935;54.498;18.544;2023-01-10T05:08:50;6.19;83.44
71206;SHT31;58935;54.498;18.544;2023-01-10T05:11:18;6.17;83.50
71206;SHT31;58935;54.498;18.544;2023-01-10T05:13:43;6.14;83.48
71206;SHT31;58935;54.498;18.544;2023-01-10T05:16:08;6.12;83.52
71206;SHT31;58935;54.498;18.544;2023-01-10T05:18:36;6.11;83.61
71206;SHT31;58935;54.498;18.544;2023-01-10T05:21:04;6.13;83.66
71206;SHT31;58935;54.498;18.544;2023-01-10T05:23:35;6.19;83.69
71206;SHT31;58935;54.498;18.544;2023-01-10T05:26:05;6.24;83.46
71206;SHT31;58935;54.498;18.544;2023-01-10T05:28:32;6.28;83.33
71206;SHT31;58935;54.498;18.544;2023-01-10T05:31:00;6.28;83.10
71206;SHT31;58935;54.498;18.544;2023-01-10T05:33:33;6.26;83.10
71206;SHT31;58935;54.498;18.544;2023-01-10T05:36:00;6.26;83.03
71206;SHT31;58935;54.498;18.544;2023-01-10T05:38:28;6.29;83.06
71206;SHT31;58935;54.498;18.544;2023-01-10T05:40:55;6.30;83.04
71206;SHT31;58935;54.498;18.544;2023-01-10T05:43:23;6.31;82.84
71206;SHT31;58935;54.498;18.544;2023-01-10T05:45:49;6.28;82.77
71206;SHT31;58935;54.498;18.544;2023-01-10T05:48:15;6.26;82.80
71206;SHT31;58935;54.498;18.544;2023-01-10T05:50:41;6.25;82.90
71206;SHT31;58935;54.498;18.544;2023-01-10T05:53:07;6.26;82.88
71206;SHT31;58935;54.498;18.544;2023-01-10T05:55:32;6.24;82.73
71206;SHT31;58935;54.498;18.544;2023-01-10T05:58:00;6.26;82.79
71206;SHT31;58935;54.498;18.544;2023-01-10T06:00:26;6.27;82.62
71206;SHT31;58935;54.498;18.544;2023-01-10T06:02:53;6.27;82.49
71206;SHT31;58935;54.498;18.544;2023-01-10T06:05:20;6.25;82.37
71206;SHT31;58935;54.498;18.544;2023-01-10T06:07:46;6.24;82.37
71206;SHT31;58935;54.498;18.544;2023-01-10T06:10:12;6.26;82.46
71206;SHT31;58935;54.498;18.544;2023-01-10T06:12:38;6.31;82.45
71206;SHT31;58935;54.498;18.544;2023-01-10T06:15:05;6.31;82.17
71206;SHT31;58935;54.498;18.544;2023-01-10T06:17:34;6.30;82.15
71206;SHT31;58935;54.498;18.544;2023-01-10T06:20:00;6.30;82.22
71206;SHT31;58935;54.498;18.544;2023-01-10T06:22:26;6.32;82.25
71206;SHT31;58935;54.498;18.544;2023-01-10T06:24:52;6.33;82.28
71206;SHT31;58935;54.498;18.544;2023-01-10T06:27:19;6.35;82.30
71206;SHT31;58935;54.498;18.544;2023-01-10T06:29:47;6.35;82.14
71206;SHT31;58935;54.498;18.544;2023-01-10T06:32:13;6.35;82.13
71206;SHT31;58935;54.498;18.544;2023-01-10T06:34:38;6.36;82.13
71206;SHT31;58935;54.498;18.544;2023-01-10T06:37:03;6.33;81.94
71206;SHT31;58935;54.498;18.544;2023-01-10T06:39:29;6.29;81.86
71206;SHT31;58935;54.498;18.544;2023-01-10T06:41:54;6.27;81.91
71206;SHT31;58935;54.498;18.544;2023-01-10T06:44:20;6.24;81.99
71206;SHT31;58935;54.498;18.544;2023-01-10T06:46:48;6.22;82.04
71206;SHT31;58935;54.498;18.544;2023-01-10T06:49:13;6.21;82.04
71206;SHT31;58935;54.498;18.544;2023-01-10T06:51:39;6.18;82.07
71206;SHT31;58935;54.498;18.544;2023-01-10T06:54:06;6.18;82.20
71206;SHT31;58935;54.498;18.544;2023-01-10T06:56:32;6.18;82.22
71206;SHT31;58935;54.498;18.544;2023-01-10T06:58:59;6.20;82.22
71206;SHT31;58935;54.498;18.544;2023-01-10T07:01:25;6.21;82.30
71206;SHT31;58935;54.498;18.544;2023-01-10T07:03:52;6.22;82.24
71206;SHT31;58935;54.498;18.544;2023-01-10T07:06:17;6.23;82.22
71206;SHT31;58935;54.498;18.544;2023-01-10T07:08:43;6.24;82.20
71206;SHT31;58935;54.498;18.544;2023-01-10T07:11:11;6.24;82.01
71206;SHT31;58935;54.498;18.544;2023-01-10T07:13:39;6.21;81.90
71206;SHT31;58935;54.498;18.544;2023-01-10T07:16:06;6.17;81.89
71206;SHT31;58935;54.498;18.544;2023-01-10T07:18:38;6.14;81.94
71206;SHT31;58935;54.498;18.544;2023-01-10T07:21:06;6.10;82.05
71206;SHT31;58935;54.498;18.544;2023-01-10T07:23:35;6.08;82.19
71206;SHT31;58935;54.498;18.544;2023-01-10T07:26:05;6.07;82.14
71206;SHT31;58935;54.498;18.544;2023-01-10T07:28:34;6.08;82.21
71206;SHT31;58935;54.498;18.544;2023-01-10T07:31:03;6.07;82.07
71206;SHT31;58935;54.498;18.544;2023-01-10T07:33:30;6.05;81.97
71206;SHT31;58935;54.498;18.544;2023-01-10T07:35:56;6.02;82.03
71206;SHT31;58935;54.498;18.544;2023-01-10T07:38:23;6.01;82.17
71206;SHT31;58935;54.498;18.544;2023-01-10T07:40:49;5.99;82.18
71206;SHT31;58935;54.498;18.544;2023-01-10T07:43:14;5.99;82.26
71206;SHT31;58935;54.498;18.544;2023-01-10T07:45:40;5.99;82.32
71206;SHT31;58935;54.498;18.544;2023-01-10T07:48:05;6.00;82.29
71206;SHT31;58935;54.498;18.544;2023-01-10T07:50:33;5.98;82.16
71206;SHT31;58935;54.498;18.544;2023-01-10T07:53:00;5.94;82.11
71206;SHT31;58935;54.498;18.544;2023-01-10T07:55:30;5.91;82.19
71206;SHT31;58935;54.498;18.544;2023-01-10T07:58:01;5.90;82.19
71206;SHT31;58935;54.498;18.544;2023-01-10T08:00:26;5.86;82.16
71206;SHT31;58935;54.498;18.544;2023-01-10T08:02:52;5.83;82.12
71206;SHT31;58935;54.498;18.544;2023-01-10T08:05:20;5.83;82.18
71206;SHT31;58935;54.498;18.544;2023-01-10T08:07:47;5.84;82.15
71206;SHT31;58935;54.498;18.544;2023-01-10T08:10:13;5.82;82.08
71206;SHT31;58935;54.498;18.544;2023-01-10T08:12:39;5.81;82.12
71206;SHT31;58935;54.498;18.544;2023-01-10T08:15:04;5.80;82.19
71206;SHT31;58935;54.498;18.544;2023-01-10T08:17:32;5.81;82.20
71206;SHT31;58935;54.498;18.544;2023-01-10T08:20:00;5.83;82.20
71206;SHT31;58935;54.498;18.544;2023-01-10T08:22:29;5.84;82.11
71206;SHT31;58935;54.498;18.544;2023-01-10T08:24:54;5.87;82.00
71206;SHT31;58935;54.498;18.544;2023-01-10T08:27:20;5.88;81.91
71206;SHT31;58935;54.498;18.544;2023-01-10T08:29:45;5.91;81.90
71206;SHT31;58935;54.498;18.544;2023-01-10T08:32:13;5.93;81.80
71206;SHT31;58935;54.498;18.544;2023-01-10T08:34:39;5.94;81.70
71206;SHT31;58935;54.498;18.544;2023-01-10T08:37:04;5.95;81.71
71206;SHT31;58935;54.498;18.544;2023-01-10T08:39:30;5.96;81.61
71206;SHT31;58935;54.498;18.544;2023-01-10T08:41:56;5.97;81.51
71206;SHT31;58935;54.498;18.544;2023-01-10T08:44:21;5.99;81.52
71206;SHT31;58935;54.498;18.544;2023-01-10T08:46:47;6.00;81.45
71206;SHT31;58935;54.498;18.544;2023-01-10T08:49:13;6.01;81.50
71206;SHT31;58935;54.498;18.544;2023-01-10T08:51:39;6.03;81.49
71206;SHT31;58935;54.498;18.544;2023-01-10T08:54:07;6.05;81.36
71206;SHT31;58935;54.498;18.544;2023-01-10T08:56:32;6.04;81.30
71206;SHT31;58935;54.498;18.544;2023-01-10T08:59:00;6.05;81.42
71206;SHT31;58935;54.498;18.544;2023-01-10T09:01:25;6.06;81.34
71206;SHT31;58935;54.498;18.544;2023-01-10T09:03:51;6.08;81.30
71206;SHT31;58935;54.498;18.544;2023-01-10T09:06:16;6.11;81.23
71206;SHT31;58935;54.498;18.544;2023-01-10T09:08:41;6.15;81.14
71206;SHT31;58935;54.498;18.544;2023-01-10T09:11:07;6.18;81.00
71206;SHT31;58935;54.498;18.544;2023-01-10T09:13:32;6.20;80.91
71206;SHT31;58935;54.498;18.544;2023-01-10T09:16:00;6.24;80.75
71206;SHT31;58935;54.498;18.544;2023-01-10T09:18:26;6.25;80.60
71206;SHT31;58935;54.498;18.544;2023-01-10T09:20:52;6.28;80.56
71206;SHT31;58935;54.498;18.544;2023-01-10T09:23:18;6.30;80.55
71206;SHT31;58935;54.498;18.544;2023-01-10T09:25:47;6.35;80.61
71206;SHT31;58935;54.498;18.544;2023-01-10T09:28:16;6.38;80.45
71206;SHT31;58935;54.498;18.544;2023-01-10T09:30:42;6.40;80.18
71206;SHT31;58935;54.498;18.544;2023-01-10T09:33:11;6.42;80.12
71206;SHT31;58935;54.498;18.544;2023-01-10T09:35:38;6.42;80.12
71206;SHT31;58935;54.498;18.544;2023-01-10T09:38:06;6.41;80.02
71206;SHT31;58935;54.498;18.544;2023-01-10T09:43:49;6.38;80.10
71206;SHT31;58935;54.498;18.544;2023-01-10T09:46:33;6.38;80.10
71206;SHT31;58935;54.498;18.544;2023-01-10T09:49:18;6.39;80.11
71206;SHT31;58935;54.498;18.544;2023-01-10T09:52:01;6.42;80.09
71206;SHT31;58935;54.498;18.544;2023-01-10T09:54:35;6.43;80.00
71206;SHT31;58935;54.498;18.544;2023-01-10T09:59:42;6.48;79.95
71206;SHT31;58935;54.498;18.544;2023-01-10T10:02:15;6.49;79.91
71206;SHT31;58935;54.498;18.544;2023-01-10T10:07:45;6.54;79.94
71206;SHT31;58935;54.498;18.544;2023-01-10T10:10:32;6.57;79.98
71206;SHT31;58935;54.498;18.544;2023-01-10T10:13:10;6.64;80.03
71206;SHT31;58935;54.498;18.544;2023-01-10T10:18:49;6.75;79.69
71206;SHT31;58935;54.498;18.544;2023-01-10T10:21:35;6.78;79.46
71206;SHT31;58935;54.498;18.544;2023-01-10T10:27:15;6.87;79.23
71206;SHT31;58935;54.498;18.544;2023-01-10T10:29:55;6.91;79.09
71206;SHT31;58935;54.498;18.544;2023-01-10T10:35:28;7.02;78.94
71206;SHT31;58935;54.498;18.544;2023-01-10T10:38:04;7.05;78.76
71206;SHT31;58935;54.498;18.544;2023-01-10T10:40:41;7.08;78.81
71206;SHT31;58935;54.498;18.544;2023-01-10T10:43:13;7.11;78.67
71206;SHT31;58935;54.498;18.544;2023-01-10T10:45:47;7.16;78.82
71206;SHT31;58935;54.498;18.544;2023-01-10T10:48:24;7.22;78.55
71206;SHT31;58935;54.498;18.544;2023-01-10T10:51:04;7.23;78.30
71206;SHT31;58935;54.498;18.544;2023-01-10T10:53:39;7.26;78.37
71206;SHT31;58935;54.498;18.544;2023-01-10T10:56:06;7.28;78.45
71206;SHT31;58935;54.498;18.544;2023-01-10T10:58:41;7.29;78.45
71206;SHT31;58935;54.498;18.544;2023-01-10T11:01:11;7.32;78.51
71206;SHT31;58935;54.498;18.544;2023-01-10T11:03:41;7.33;78.43
71206;SHT31;58935;54.498;18.544;2023-01-10T11:06:15;7.35;78.38
71206;SHT31;58935;54.498;18.544;2023-01-10T11:08:44;7.36;78.55
71206;SHT31;58935;54.498;18.544;2023-01-10T11:11:19;7.42;78.50
71206;SHT31;58935;54.498;18.544;2023-01-10T11:13:52;7.45;78.59
71206;SHT31;58935;54.498;18.544;2023-01-10T11:16:25;7.51;78.60
71206;SHT31;58935;54.498;18.544;2023-01-10T11:19:08;7.56;78.48
71206;SHT31;58935;54.498;18.544;2023-01-10T11:21:46;7.62;78.45
71206;SHT31;58935;54.498;18.544;2023-01-10T11:24:40;7.67;78.34
71206;SHT31;58935;54.498;18.544;2023-01-10T11:27:21;7.72;78.19
71206;SHT31;58935;54.498;18.544;2023-01-10T11:29:51;7.78;78.16
71206;SHT31;58935;54.498;18.544;2023-01-10T11:32:29;7.81;77.94
71206;SHT31;58935;54.498;18.544;2023-01-10T11:37:57;7.87;77.80
71206;SHT31;58935;54.498;18.544;2023-01-10T11:40:30;7.90;77.80
71206;SHT31;58935;54.498;18.544;2023-01-10T11:43:21;7.93;77.81
71206;SHT31;58935;54.498;18.544;2023-01-10T11:45:56;8.00;78.00
71206;SHT31;58935;54.498;18.544;2023-01-10T11:48:29;8.06;77.95
71206;SHT31;58935;54.498;18.544;2023-01-10T11:51:14;8.10;77.89
71206;SHT31;58935;54.498;18.544;2023-01-10T11:53:46;8.17;77.86
71206;SHT31;58935;54.498;18.544;2023-01-10T11:56:26;8.23;77.81
71206;SHT31;58935;54.498;18.544;2023-01-10T11:58:57;8.30;77.57
71206;SHT31;58935;54.498;18.544;2023-01-10T12:01:37;8.34;77.40
71206;SHT31;58935;54.498;18.544;2023-01-10T12:04:12;8.40;77.46
71206;SHT31;58935;54.498;18.544;2023-01-10T12:06:42;8.44;77.25
71206;SHT31;58935;54.498;18.544;2023-01-10T12:09:30;8.48;77.19
71206;SHT31;58935;54.498;18.544;2023-01-10T12:12:02;8.57;77.38
71206;SHT31;58935;54.498;18.544;2023-01-10T12:14:41;8.63;76.96
71206;SHT31;58935;54.498;18.544;2023-01-10T12:17:09;8.68;76.95
71206;SHT31;58935;54.498;18.544;2023-01-10T12:19:51;8.73;76.56
71206;SHT31;58935;54.498;18.544;2023-01-10T12:22:24;8.72;76.38
71206;SHT31;58935;54.498;18.544;2023-01-10T12:24:59;8.73;76.35
71206;SHT31;58935;54.498;18.544;2023-01-10T12:27:31;8.72;76.28
71206;SHT31;58935;54.498;18.544;2023-01-10T12:30:00;8.71;76.35
71206;SHT31;58935;54.498;18.544;2023-01-10T12:32:37;8.70;76.28
71206;SHT31;58935;54.498;18.544;2023-01-10T12:35:14;8.69;76.32
71206;SHT31;58935;54.498;18.544;2023-01-10T12:37:52;8.72;76.26
71206;SHT31;58935;54.498;18.544;2023-01-10T12:45:46;8.74;76.42
71206;SHT31;58935;54.498;18.544;2023-01-10T12:48:23;8.76;76.49
71206;SHT31;58935;54.498;18.544;2023-01-10T12:51:06;8.75;76.31
71206;SHT31;58935;54.498;18.544;2023-01-10T12:53:43;8.69;76.28
71206;SHT31;58935;54.498;18.544;2023-01-10T12:56:17;8.63;76.45
71206;SHT31;58935;54.498;18.544;2023-01-10T12:58:45;8.59;76.53
71206;SHT31;58935;54.498;18.544;2023-01-10T13:01:18;8.56;76.83
71206;SHT31;58935;54.498;18.544;2023-01-10T13:03:55;8.53;76.85
71206;SHT31;58935;54.498;18.544;2023-01-10T13:06:31;8.52;77.03
71206;SHT31;58935;54.498;18.544;2023-01-10T13:09:06;8.50;77.02
71206;SHT31;58935;54.498;18.544;2023-01-10T13:14:28;8.39;77.19
71206;SHT31;58935;54.498;18.544;2023-01-10T13:20:16;8.28;77.63
71206;SHT31;58935;54.498;18.544;2023-01-10T13:22:38;8.24;77.76
71206;SHT31;58935;54.498;18.544;2023-01-10T13:25:04;8.21;77.83
71206;SHT31;58935;54.498;18.544;2023-01-10T13:27:31;8.15;77.83
71206;SHT31;58935;54.498;18.544;2023-01-10T13:29:59;8.09;77.95
71206;SHT31;58935;54.498;18.544;2023-01-10T13:32:28;8.05;78.07
71206;SHT31;58935;54.498;18.544;2023-01-10T13:35:15;8.00;78.09
71206;SHT31;58935;54.498;18.544;2023-01-10T13:37:43;7.94;78.24
71206;SHT31;58935;54.498;18.544;2023-01-10T13:40:21;7.89;78.33
71206;SHT31;58935;54.498;18.544;2023-01-10T13:45:32;7.83;78.62
71206;SHT31;58935;54.498;18.544;2023-01-10T13:48:01;7.82;78.69
71206;SHT31;58935;54.498;18.544;2023-01-10T13:58:42;7.85;78.73
71206;SHT31;58935;54.498;18.544;2023-01-10T14:03:51;7.78;78.84
71206;SHT31;58935;54.498;18.544;2023-01-10T14:09:27;7.68;79.03
71206;SHT31;58935;54.498;18.544;2023-01-10T14:12:01;7.60;79.12
71206;SHT31;58935;54.498;18.544;2023-01-10T14:14:33;7.52;79.19
71206;SHT31;58935;54.498;18.544;2023-01-10T14:19:57;7.40;79.39
71206;SHT31;58935;54.498;18.544;2023-01-10T14:22:38;7.33;79.53
71206;SHT31;58935;54.498;18.544;2023-01-10T14:25:18;7.27;79.74
71206;SHT31;58935;54.498;18.544;2023-01-10T14:27:50;7.23;79.89
71206;SHT31;58935;54.498;18.544;2023-01-10T14:30:20;7.19;79.93
71206;SHT31;58935;54.498;18.544;2023-01-10T14:33:04;7.16;79.80
71206;SHT31;58935;54.498;18.544;2023-01-10T14:35:42;7.12;79.81
71206;SHT31;58935;54.498;18.544;2023-01-10T14:40:50;7.03;79.89
71206;SHT31;58935;54.498;18.544;2023-01-10T14:43:24;6.96;80.04
71206;SHT31;58935;54.498;18.544;2023-01-10T14:46:00;6.88;80.24
71206;SHT31;58935;54.498;18.544;2023-01-10T14:48:39;6.80;80.57
71206;SHT31;58935;54.498;18.544;2023-01-10T14:51:16;6.71;80.81
71206;SHT31;58935;54.498;18.544;2023-01-10T14:56:53;6.56;81.19
71206;SHT31;58935;54.498;18.544;2023-01-10T14:59:20;6.49;81.46
71206;SHT31;58935;54.498;18.544;2023-01-10T15:04:27;6.39;82.07
71206;SHT31;58935;54.498;18.544;2023-01-10T15:07:01;6.36;82.22
71206;SHT31;58935;54.498;18.544;2023-01-10T15:09:36;6.33;82.49
71206;SHT31;58935;54.498;18.544;2023-01-10T15:12:11;6.29;82.73
71206;SHT31;58935;54.498;18.544;2023-01-10T15:14:39;6.28;82.86
71206;SHT31;58935;54.498;18.544;2023-01-10T15:17:09;6.28;82.92
71206;SHT31;58935;54.498;18.544;2023-01-10T15:19:41;6.28;83.06
71206;SHT31;58935;54.498;18.544;2023-01-10T15:27:24;6.33;83.13
71206;SHT31;58935;54.498;18.544;2023-01-10T15:29:50;6.36;83.18
71206;SHT31;58935;54.498;18.544;2023-01-10T15:32:19;6.38;83.19
71206;SHT31;58935;54.498;18.544;2023-01-10T15:34:56;6.39;83.23
71206;SHT31;58935;54.498;18.544;2023-01-10T15:37:24;6.40;83.28
71206;SHT31;58935;54.498;18.544;2023-01-10T15:39:58;6.38;83.24
71206;SHT31;58935;54.498;18.544;2023-01-10T15:42:25;6.39;83.30
71206;SHT31;58935;54.498;18.544;2023-01-10T15:44:52;6.40;83.29
71206;SHT31;58935;54.498;18.544;2023-01-10T15:50:16;6.43;83.28
71206;SHT31;58935;54.498;18.544;2023-01-10T15:52:53;6.43;83.31
71206;SHT31;58935;54.498;18.544;2023-01-10T15:57:58;6.41;83.39
71206;SHT31;58935;54.498;18.544;2023-01-10T16:00:25;6.42;83.42
71206;SHT31;58935;54.498;18.544;2023-01-10T16:02:51;6.45;83.47
71206;SHT31;58935;54.498;18.544;2023-01-10T16:05:20;6.47;83.48
71206;SHT31;58935;54.498;18.544;2023-01-10T16:07:46;6.48;83.48
71206;SHT31;58935;54.498;18.544;2023-01-10T16:10:17;6.48;83.46
71206;SHT31;58935;54.498;18.544;2023-01-10T16:12:49;6.52;83.40
71206;SHT31;58935;54.498;18.544;2023-01-10T16:15:19;6.54;83.40
71206;SHT31;58935;54.498;18.544;2023-01-10T16:17:49;6.56;83.44
71206;SHT31;58935;54.498;18.544;2023-01-10T16:20:16;6.57;83.40
71206;SHT31;58935;54.498;18.544;2023-01-10T16:22:47;6.57;83.42
71206;SHT31;58935;54.498;18.544;2023-01-10T16:25:15;6.57;83.38
71206;SHT31;58935;54.498;18.544;2023-01-10T16:27:46;6.61;83.38
71206;SHT31;58935;54.498;18.544;2023-01-10T16:30:23;6.64;83.37
71206;SHT31;58935;54.498;18.544;2023-01-10T16:32:54;6.65;83.39
71206;SHT31;58935;54.498;18.544;2023-01-10T16:35:22;6.66;83.40
71206;SHT31;58935;54.498;18.544;2023-01-10T16:37:48;6.67;83.32
71206;SHT31;58935;54.498;18.544;2023-01-10T16:40:22;6.68;83.36
71206;SHT31;58935;54.498;18.544;2023-01-10T16:42:53;6.68;83.35
71206;SHT31;58935;54.498;18.544;2023-01-10T16:45:22;6.68;83.31
71206;SHT31;58935;54.498;18.544;2023-01-10T16:47:50;6.69;83.30
71206;SHT31;58935;54.498;18.544;2023-01-10T16:50:16;6.68;83.30
71206;SHT31;58935;54.498;18.544;2023-01-10T16:52:43;6.67;83.31
71206;SHT31;58935;54.498;18.544;2023-01-10T16:55:12;6.68;83.29
71206;SHT31;58935;54.498;18.544;2023-01-10T16:57:42;6.68;83.30
71206;SHT31;58935;54.498;18.544;2023-01-10T17:00:13;6.70;83.26
71206;SHT31;58935;54.498;18.544;2023-01-10T17:02:42;6.71;83.20
71206;SHT31;58935;54.498;18.544;2023-01-10T17:05:12;6.72;83.21
71206;SHT31;58935;54.498;18.544;2023-01-10T17:07:38;6.73;83.17
71206;SHT31;58935;54.498;18.544;2023-01-10T17:10:04;6.74;83.16
71206;SHT31;58935;54.498;18.544;2023-01-10T17:12:36;6.74;83.11
71206;SHT31;58935;54.498;18.544;2023-01-10T17:15:05;6.74;83.11
71206;SHT31;58935;54.498;18.544;2023-01-10T17:17:36;6.73;83.09